createdAt,value
2023-04-29T00:05:29.688Z,93638.95
2023-04-29T00:13:53.354Z,93647.58
2023-04-29T00:22:16.448Z,93646.73
2023-04-29T00:30:39.556Z,93642.90
2023-04-29T00:39:03.276Z,93621.89
2023-04-29T00:47:26.251Z,93592.62
2023-04-29T00:55:52.124Z,93569.35
2023-04-29T01:04:16.529Z,93564.71
2023-04-29T01:12:51.116Z,93582.61
2023-04-29T01:21:14.404Z,93609.06
2023-04-29T01:29:54.362Z,93612.46
2023-04-29T01:38:36.533Z,93590.91
2023-04-29T01:47:01.882Z,93524.73
2023-04-29T01:55:34.454Z,93435.38
2023-04-29T02:04:28.916Z,93342.55
2023-04-29T02:12:53.292Z,93280.52
2023-04-29T02:21:16.896Z,93236.42
2023-04-29T02:29:40.080Z,93223.27
2023-04-29T02:38:03.062Z,93233.11
2023-04-29T02:46:26.125Z,93241.50
2023-04-29T02:54:50.046Z,93256.01
2023-04-29T03:03:14.165Z,93276.54
2023-04-29T03:11:37.830Z,93313.27
2023-04-29T03:20:01.997Z,93366.49
2023-04-29T03:28:26.258Z,93436.72
2023-04-29T03:36:49.325Z,93516.48
2023-04-29T03:45:15.402Z,93574.52
2023-04-29T03:53:39.039Z,93643.91
2023-04-29T04:02:03.107Z,93836.24
2023-04-29T04:10:26.847Z,93908.11
2023-04-29T04:18:50.789Z,93975.98
2023-04-29T04:27:14.533Z,94074.59
2023-04-29T04:35:43.549Z,94248.02
2023-04-29T04:44:07.354Z,94469.45
2023-04-29T04:52:43.568Z,94607.55
2023-04-29T05:01:30.120Z,94637.61
2023-04-29T05:09:53.647Z,94706.50
2023-04-29T05:18:18.141Z,94831.05
2023-04-29T05:26:44.344Z,94925.02
2023-04-29T05:35:08.744Z,95066.95
2023-04-29T05:43:32.861Z,95260.50
2023-04-29T05:51:56.804Z,95439.88
2023-04-29T06:00:20.727Z,95585.33
2023-04-29T06:08:44.221Z,95647.54
2023-04-29T06:17:12.919Z,95699.39
2023-04-29T06:25:36.343Z,95754.94
2023-04-29T06:34:02.006Z,95885.60
2023-04-29T06:42:25.937Z,96144.77
2023-04-29T06:51:09.201Z,96496.29
2023-04-29T06:59:33.942Z,96818.59
2023-04-29T07:08:00.147Z,97001.23
2023-04-29T07:16:26.761Z,97023.28
2023-04-29T07:24:53.822Z,96889.66
2023-04-29T07:33:18.224Z,96754.42
2023-04-29T07:41:42.208Z,96752.72
2023-04-29T07:50:07.243Z,96935.86
2023-04-29T07:58:30.300Z,97143.23
2023-04-29T08:06:53.867Z,97231.81
2023-04-29T08:15:18.624Z,97445.37
2023-04-29T08:23:41.693Z,97758.23
2023-04-29T08:32:05.314Z,97902.36
2023-04-29T08:40:28.339Z,97971.02
2023-04-29T08:48:52.648Z,97929.17
2023-04-29T08:57:16.743Z,97939.77
2023-04-29T09:05:41.982Z,98013.32
2023-04-29T09:14:05.032Z,98111.70
2023-04-29T09:22:48.269Z,98229.98
2023-04-29T09:31:12.652Z,98376.36
2023-04-29T09:39:40.290Z,98525.44
2023-04-29T09:48:05.237Z,98613.29
2023-04-29T09:56:30.900Z,98483.79
2023-04-29T10:04:57.948Z,98468.82
2023-04-29T10:13:21.806Z,98619.52
2023-04-29T10:21:45.213Z,98707.52
2023-04-29T10:30:12.924Z,98789.02
2023-04-29T10:38:59.070Z,98880.21
2023-04-29T10:47:22.226Z,98959.69
2023-04-29T10:55:53.739Z,98942.65
2023-04-29T11:04:19.103Z,98880.61
2023-04-29T11:12:42.209Z,98905.92
2023-04-29T11:21:08.097Z,98814.05
2023-04-29T11:29:32.896Z,98841.34
2023-04-29T11:37:56.787Z,98829.97
2023-04-29T11:46:19.854Z,98899.75
2023-04-29T11:54:42.994Z,98935.41
2023-04-29T12:03:20.088Z,98910.46
2023-04-29T12:11:44.483Z,98982.38
2023-04-29T12:20:12.189Z,99014.09
2023-04-29T12:28:35.566Z,99016.01
2023-04-29T12:37:02.548Z,98860.36
2023-04-29T12:45:30.842Z,98591.00
2023-04-29T12:53:53.987Z,98612.69
2023-04-29T13:02:17.694Z,98789.33
2023-04-29T13:10:40.819Z,98941.59
2023-04-29T13:19:17.004Z,98839.48
2023-04-29T13:27:47.125Z,98872.33
2023-04-29T13:36:10.560Z,98857.79
2023-04-29T13:44:47.179Z,98962.21
2023-04-29T14:10:07.010Z,98711.35
2023-04-29T14:18:30.712Z,98558.74
2023-04-29T14:26:53.752Z,98452.50
2023-04-29T14:35:16.910Z,98454.09
2023-04-29T14:43:39.806Z,98413.91
2023-04-29T14:52:02.782Z,98346.67
2023-04-29T15:00:26.316Z,98328.98
2023-04-29T15:08:49.621Z,98335.47
2023-04-29T15:17:12.798Z,98321.05
2023-04-29T15:25:36.394Z,98306.73
2023-04-29T15:33:59.948Z,98278.66
2023-04-29T15:42:22.944Z,98260.59
2023-04-29T15:50:46.435Z,98375.23
2023-04-29T15:59:09.342Z,98378.55
2023-04-29T16:07:33.583Z,98331.85
2023-04-29T16:15:57.887Z,98271.77
2023-04-29T16:24:21.006Z,98144.30
2023-04-29T16:32:44.041Z,98010.83
2023-04-29T16:41:07.504Z,97909.37
2023-04-29T16:49:31.321Z,97836.86
2023-04-29T16:57:54.322Z,97784.90
2023-04-29T17:06:17.737Z,97728.56
2023-04-29T17:14:40.869Z,97649.41
2023-04-29T17:23:04.174Z,97566.95
2023-04-29T17:31:34.086Z,97480.50
2023-04-29T17:39:57.356Z,97407.97
2023-04-29T17:48:22.566Z,97338.86
2023-04-29T17:56:45.617Z,97277.26
2023-04-29T18:05:08.666Z,97230.31
2023-04-29T18:13:31.566Z,97177.54
2023-04-29T18:21:58.354Z,97125.02
2023-04-29T18:30:21.478Z,97066.42
2023-04-29T18:38:44.432Z,96999.00
2023-04-29T18:47:07.454Z,96918.67
2023-04-29T18:55:30.988Z,96852.53
2023-04-29T19:03:53.995Z,96784.90
2023-04-29T19:12:16.904Z,96701.45
2023-04-29T19:20:41.024Z,96612.91
2023-04-29T19:29:04.135Z,96491.27
2023-04-29T19:37:27.223Z,96360.20
2023-04-29T19:45:51.011Z,96235.25
2023-04-29T19:54:14.412Z,96119.83
2023-04-29T20:02:37.568Z,95993.19
2023-04-29T20:11:01.277Z,95891.94
2023-04-29T20:19:24.796Z,95762.48
2023-04-29T20:27:48.520Z,95660.20
2023-04-29T20:36:12.226Z,95575.66
2023-04-29T20:44:35.417Z,95489.23
2023-04-29T20:52:58.749Z,95403.11
2023-04-29T21:01:21.926Z,95313.03
2023-04-29T21:09:45.060Z,95226.30
2023-04-29T21:18:08.139Z,95161.73
2023-04-29T21:26:31.177Z,95121.92
2023-04-29T21:34:54.114Z,95116.84
2023-04-29T21:43:17.806Z,95090.35
2023-04-29T21:51:40.921Z,95014.29
2023-04-29T22:00:18.938Z,94961.57
2023-04-29T22:08:41.918Z,94912.02
2023-04-29T22:17:04.873Z,94875.46
2023-04-29T22:25:31.374Z,94861.90
2023-04-29T22:33:54.394Z,94847.48
2023-04-29T22:42:18.262Z,94807.15
2023-04-29T22:50:41.182Z,94770.48
2023-04-29T22:59:04.136Z,94750.65
2023-04-29T23:07:27.090Z,94727.48
2023-04-29T23:15:50.039Z,94730.88
2023-04-29T23:24:12.953Z,94741.27
2023-04-29T23:32:35.963Z,94715.51
2023-04-29T23:40:58.936Z,94655.01
2023-04-29T23:49:21.909Z,94610.91
2023-04-29T23:57:44.826Z,94591.67
